Pays
Station

 

Conditions  météo  pour  Aeropuerto Guarany  -  Paraguay    Paraguay

  
24 °C
    
 
 

METAR pour Aeropuerto Guarany :

SGES 200700Z 21003KT 8000 NSC 24/23 Q1011

 

Voici le bulletin pour Aeropuerto Guarany - Paraguay.
 
Le bulletin a été fait il y a 14 minutes, à 07:00 UTC .
Le vent soufflait à la vitesse de 1.5 mètres par seconde de Sud/Sud-ouest (210°).
 
La température était de 24 °C, avec un point de rosée à 23 °C.
La température ressentie était de 23 °C.
 
La pression atmosphérique était de 1011 hPa.
L'humidité relative était de 94.2%.
 
La visibilité globale était de 8.0 kilomètres.
 

 
 
 

Pays :   A   B   C   D   E   F   G   H   I   J   K   L   M   N   O   P   Q   R   S   T   U   V   W   Y   Z

 

Partenaires :  Info Météo avec Met'info
Météo Marine avec MeteoMarine.net
Infos Site  |  Infos Légales  |  Crédits  |  Confidentialité
Contactez-nous  |  Ajouter aux favoris
© 2013-2020 METAR - Tous droits réservés